createdAt,value
2022-07-25T00:02:25.410Z,53696.75
2022-07-25T00:04:55.908Z,53686.78
2022-07-25T00:07:24.672Z,53702.72
2022-07-25T00:09:53.027Z,53694.75
2022-07-25T00:12:21.481Z,53714.69
2022-07-25T00:14:49.594Z,53692.78
2022-07-25T00:17:17.836Z,53674.84
2022-07-25T00:19:45.928Z,53676.84
2022-07-25T00:22:15.737Z,53678.81
2022-07-25T00:24:45.002Z,53678.81
2022-07-25T00:27:14.191Z,53668.88
2022-07-25T00:29:42.386Z,53678.81
2022-07-25T00:32:13.009Z,53678.81
2022-07-25T00:34:41.390Z,53672.84
2022-07-25T00:37:10.065Z,53623.03
2022-07-25T00:39:39.678Z,53684.81
2022-07-25T00:42:08.045Z,53732.63
2022-07-25T00:44:36.137Z,53664.88
2022-07-25T00:47:04.741Z,53706.72
2022-07-25T00:49:33.982Z,53658.91
2022-07-25T00:52:02.418Z,53706.72
2022-07-25T00:54:30.986Z,53668.88
2022-07-25T00:57:00.525Z,53690.78
2022-07-25T00:59:30.422Z,53702.72
2022-07-25T01:01:58.616Z,53702.72
2022-07-25T01:04:26.798Z,53658.91
2022-07-25T01:06:54.885Z,53688.78
2022-07-25T01:09:23.987Z,53698.75
2022-07-25T01:11:52.415Z,53678.81
2022-07-25T01:14:23.033Z,53692.78
2022-07-25T01:16:51.224Z,53714.69
2022-07-25T01:19:19.478Z,53690.78
2022-07-25T01:21:49.110Z,53682.81
2022-07-25T01:24:17.261Z,53662.88
2022-07-25T01:26:45.350Z,53698.75
2022-07-25T01:29:13.610Z,53732.63
2022-07-25T01:31:41.805Z,53706.72
2022-07-25T01:34:10.457Z,53706.72
2022-07-25T01:36:38.640Z,53682.81
2022-07-25T01:39:08.090Z,53706.72
2022-07-25T01:41:36.293Z,53672.84
2022-07-25T01:44:05.052Z,53670.84
2022-07-25T01:46:33.443Z,53694.75
2022-07-25T01:49:02.850Z,53708.72
2022-07-25T01:51:32.226Z,53694.75
2022-07-25T01:54:00.334Z,53690.78
2022-07-25T01:56:31.789Z,53686.78
2022-07-25T01:59:00.703Z,53694.75
2022-07-25T02:01:28.904Z,53658.91
2022-07-25T02:03:57.109Z,53706.72
2022-07-25T02:06:25.497Z,53684.81
2022-07-25T02:08:53.717Z,53692.78
2022-07-25T02:11:22.053Z,53686.78
2022-07-25T02:13:51.635Z,53718.66
2022-07-25T02:16:19.807Z,53682.81
2022-07-25T02:18:57.483Z,53678.81
2022-07-25T02:21:26.133Z,53706.72
2022-07-25T02:23:54.513Z,53704.72
2022-07-25T02:26:23.807Z,53710.69
2022-07-25T02:28:54.730Z,53712.69
2022-07-25T02:31:22.933Z,53714.69
2022-07-25T02:33:51.148Z,53742.56
2022-07-25T02:36:19.346Z,53728.63
2022-07-25T02:38:47.555Z,53706.72
2022-07-25T02:41:15.751Z,53706.72
2022-07-25T02:43:43.878Z,53750.53
2022-07-25T02:46:13.659Z,53690.78
2022-07-25T02:48:41.940Z,53738.59
2022-07-25T02:51:10.132Z,53750.53
2022-07-25T02:53:56.633Z,53742.56
2022-07-25T02:56:29.784Z,53762.50
2022-07-25T02:58:58.253Z,53756.50
2022-07-25T03:01:27.928Z,53782.41
2022-07-25T03:03:56.325Z,53754.53
2022-07-25T03:06:25.327Z,53760.50
2022-07-25T03:08:53.415Z,53754.53
2022-07-25T03:11:22.405Z,53732.63
2022-07-25T03:13:50.696Z,53756.50
2022-07-25T03:16:18.967Z,53762.50
2022-07-25T03:18:48.902Z,53730.63
2022-07-25T03:21:17.079Z,53770.47
2022-07-25T03:23:50.407Z,53742.56
2022-07-25T03:26:21.048Z,53770.47
2022-07-25T03:28:49.206Z,53780.41
2022-07-25T03:31:17.545Z,53766.47
2022-07-25T03:33:46.246Z,53770.47
2022-07-25T03:36:15.869Z,53734.59
2022-07-25T03:38:44.000Z,53754.53
2022-07-25T03:41:12.115Z,53758.50
2022-07-25T03:43:40.322Z,53770.47
2022-07-25T03:46:08.532Z,53776.44
2022-07-25T03:48:37.172Z,53774.44
2022-07-25T03:51:07.249Z,53772.44
2022-07-25T03:53:57.000Z,53770.47
2022-07-25T03:56:25.570Z,53778.44
2022-07-25T03:58:53.786Z,53758.50
2022-07-25T04:01:22.274Z,53786.41
2022-07-25T04:03:51.596Z,53814.28
2022-07-25T04:06:19.903Z,53762.50
2022-07-25T04:08:50.702Z,53782.41
2022-07-25T04:11:19.344Z,53782.41
2022-07-25T04:13:47.735Z,53772.44
2022-07-25T04:16:22.090Z,53738.59
2022-07-25T04:18:51.109Z,53746.56
2022-07-25T04:21:20.139Z,53726.63
2022-07-25T04:23:48.346Z,53746.56
2022-07-25T04:26:18.071Z,53762.50
2022-07-25T04:28:46.223Z,53746.56
2022-07-25T04:31:14.431Z,53734.59
2022-07-25T04:33:43.225Z,53722.66
2022-07-25T04:36:11.733Z,53750.53
2022-07-25T04:38:40.069Z,53750.53
2022-07-25T04:41:08.158Z,53756.50
2022-07-25T04:43:37.915Z,53730.63
2022-07-25T04:46:06.246Z,53738.59
2022-07-25T04:48:35.700Z,53734.59
2022-07-25T04:51:03.995Z,53762.50
2022-07-25T04:53:32.260Z,53746.56
2022-07-25T04:56:00.356Z,53710.69
2022-07-25T04:58:28.533Z,53690.78
2022-07-25T05:00:58.735Z,53631.00
2022-07-25T05:03:26.975Z,53583.22
2022-07-25T05:05:55.209Z,53595.16
2022-07-25T05:08:23.387Z,53511.50
2022-07-25T05:10:51.563Z,53499.53
2022-07-25T05:13:22.195Z,53483.59
2022-07-25T05:15:50.350Z,53417.88
2022-07-25T05:18:20.089Z,53457.72
2022-07-25T05:20:48.325Z,53475.63
2022-07-25T05:23:16.449Z,53435.78
2022-07-25T05:25:45.021Z,53419.88
2022-07-25T05:28:18.028Z,53427.84
2022-07-25T05:30:49.093Z,53415.88
2022-07-25T05:33:17.295Z,53393.97
2022-07-25T05:35:54.832Z,53439.78
2022-07-25T05:38:23.325Z,53407.91
2022-07-25T05:40:52.492Z,53376.03
2022-07-25T05:43:20.725Z,53389.97
2022-07-25T05:45:48.868Z,53395.97
2022-07-25T05:48:17.411Z,53453.72
2022-07-25T05:50:46.260Z,53509.50
2022-07-25T05:53:16.101Z,53529.41
2022-07-25T05:55:44.282Z,53587.19
2022-07-25T05:58:12.436Z,53591.19
2022-07-25T06:00:40.632Z,53587.19
2022-07-25T06:03:08.864Z,53644.97
2022-07-25T06:05:37.103Z,53646.94
2022-07-25T06:08:05.495Z,53646.94
2022-07-25T06:10:36.769Z,53635.00
2022-07-25T06:13:05.731Z,53615.06
2022-07-25T06:15:35.968Z,53652.94
2022-07-25T06:18:04.222Z,53646.94
2022-07-25T06:20:32.432Z,53642.97
2022-07-25T06:23:01.015Z,53654.91
2022-07-25T06:25:29.210Z,53670.84
2022-07-25T06:27:59.008Z,53642.97
2022-07-25T06:30:27.189Z,53648.94
2022-07-25T06:32:55.516Z,53660.91
2022-07-25T06:35:24.696Z,53637.00
2022-07-25T06:37:54.003Z,53642.97
2022-07-25T06:40:22.176Z,53654.91
2022-07-25T06:42:51.434Z,53631.00
2022-07-25T06:45:21.501Z,53635.00
2022-07-25T06:47:50.048Z,53646.94
2022-07-25T06:50:21.243Z,53658.91
2022-07-25T06:52:49.884Z,53648.94
2022-07-25T06:55:18.218Z,53629.03
2022-07-25T06:57:46.449Z,53650.94
2022-07-25T07:00:15.783Z,53654.91
2022-07-25T07:02:53.400Z,53644.97
2022-07-25T07:05:22.424Z,53670.84
2022-07-25T07:07:50.855Z,53635.00
2022-07-25T07:10:19.909Z,53670.84
2022-07-25T07:12:48.267Z,53650.94
2022-07-25T07:15:18.333Z,53678.81
2022-07-25T07:17:46.522Z,53631.00
2022-07-25T07:20:16.134Z,53638.97
2022-07-25T07:22:47.987Z,53648.94
2022-07-25T07:25:16.748Z,53609.09
2022-07-25T07:27:45.616Z,53631.00
2022-07-25T07:30:15.011Z,53631.00
2022-07-25T07:32:44.217Z,53650.94
2022-07-25T07:35:12.782Z,53627.03
2022-07-25T07:37:43.822Z,53619.06
2022-07-25T07:40:16.860Z,53603.13
2022-07-25T07:42:47.867Z,53587.19
2022-07-25T07:45:18.429Z,53607.09
2022-07-25T07:47:48.907Z,53613.09
2022-07-25T07:50:19.323Z,53583.22
2022-07-25T07:52:49.731Z,53579.22
2022-07-25T07:55:36.527Z,53577.22
2022-07-25T07:58:07.370Z,53585.19
2022-07-25T08:00:39.356Z,53587.19
2022-07-25T08:03:08.984Z,53573.25
2022-07-25T08:05:39.004Z,53619.06
2022-07-25T08:08:11.172Z,53623.03
2022-07-25T08:10:41.943Z,53609.09
2022-07-25T08:13:18.053Z,53611.09
2022-07-25T08:15:47.875Z,53599.16
2022-07-25T08:18:17.123Z,53607.09
2022-07-25T08:20:46.795Z,53583.22
2022-07-25T08:23:16.646Z,53583.22
2022-07-25T08:25:45.548Z,53601.13
2022-07-25T08:28:14.545Z,53579.22
2022-07-25T08:30:43.616Z,53565.28
2022-07-25T08:33:16.347Z,53599.16
2022-07-25T08:35:49.122Z,53565.28
2022-07-25T08:38:18.889Z,53613.09
2022-07-25T08:40:47.832Z,53567.28
2022-07-25T08:43:17.554Z,53559.31
2022-07-25T08:45:48.077Z,53561.28
2022-07-25T08:48:19.640Z,53527.44
2022-07-25T08:50:49.408Z,53579.22
2022-07-25T08:53:36.297Z,53563.28
2022-07-25T08:56:12.174Z,53567.28
2022-07-25T08:58:44.334Z,53587.19
2022-07-25T09:01:13.186Z,53583.22
2022-07-25T09:03:43.151Z,53543.38
2022-07-25T09:06:19.957Z,53545.34
2022-07-25T09:08:57.852Z,53547.34
2022-07-25T09:11:34.244Z,53537.38
2022-07-25T09:14:05.824Z,53521.44
2022-07-25T09:16:40.150Z,53525.44
2022-07-25T09:19:15.749Z,53533.41
2022-07-25T09:21:45.893Z,53539.38
2022-07-25T09:24:18.155Z,53551.34
2022-07-25T09:26:48.018Z,53501.53
2022-07-25T09:29:21.665Z,53535.41
2022-07-25T09:31:50.018Z,53519.47
2022-07-25T09:34:30.951Z,53539.38
2022-07-25T09:36:59.547Z,53539.38
2022-07-25T09:39:46.085Z,53543.38
2022-07-25T09:42:26.547Z,53539.38
2022-07-25T09:45:06.560Z,53519.47
2022-07-25T09:47:36.802Z,53515.47
2022-07-25T09:50:06.050Z,53497.56
2022-07-25T09:52:34.582Z,53511.50
2022-07-25T09:55:06.555Z,53475.63
2022-07-25T09:57:34.926Z,53523.44
2022-07-25T10:00:03.988Z,53553.31
2022-07-25T10:02:45.593Z,53495.56
2022-07-25T10:05:16.869Z,53465.69
2022-07-25T10:07:48.626Z,53499.53
2022-07-25T10:10:29.130Z,53485.59
2022-07-25T10:13:10.166Z,53487.59
2022-07-25T10:15:46.726Z,53549.34
2022-07-25T10:18:18.260Z,53507.50
2022-07-25T10:20:48.290Z,53495.56
2022-07-25T10:23:25.336Z,53477.63
2022-07-25T10:26:09.692Z,53481.63
2022-07-25T10:28:40.489Z,53467.66
2022-07-25T10:31:36.330Z,53507.50
2022-07-25T10:34:06.621Z,53501.53
2022-07-25T10:36:46.148Z,53505.53
2022-07-25T10:39:15.947Z,53465.69
2022-07-25T10:41:51.778Z,53505.53
2022-07-25T10:44:20.390Z,53487.59
2022-07-25T10:46:50.387Z,53455.72
2022-07-25T10:49:29.104Z,53485.59
2022-07-25T10:52:01.046Z,53459.69
2022-07-25T10:54:35.959Z,53463.69
2022-07-25T10:57:07.321Z,53479.63
2022-07-25T10:59:40.068Z,53507.50
2022-07-25T11:02:16.385Z,53501.53
2022-07-25T11:04:45.389Z,53499.53
2022-07-25T11:07:15.803Z,53477.63
2022-07-25T11:09:45.140Z,53483.59
2022-07-25T11:12:18.049Z,53479.63
2022-07-25T11:14:47.935Z,53445.75
2022-07-25T11:17:24.024Z,53451.72
2022-07-25T11:19:57.489Z,53427.84
2022-07-25T11:22:26.620Z,53441.78
2022-07-25T11:24:58.062Z,53443.75
2022-07-25T11:27:29.290Z,53407.91
2022-07-25T11:30:08.033Z,53437.78
2022-07-25T11:32:40.874Z,53427.84
2022-07-25T11:35:10.111Z,53463.69
2022-07-25T11:37:41.375Z,53447.75
2022-07-25T11:40:11.032Z,53451.72
2022-07-25T11:42:45.594Z,53459.69
2022-07-25T11:45:19.098Z,53419.88
2022-07-25T11:47:48.980Z,53425.84
2022-07-25T11:50:17.430Z,53425.84
2022-07-25T11:52:46.527Z,53425.84
2022-07-25T11:55:18.111Z,53427.84
2022-07-25T11:57:48.901Z,53443.75
2022-07-25T12:00:20.916Z,53388.00
2022-07-25T12:02:58.183Z,53439.78
2022-07-25T12:05:33.786Z,53429.81
2022-07-25T12:08:10.658Z,53461.69
2022-07-25T12:10:39.521Z,53431.81
2022-07-25T12:13:10.702Z,53467.66
2022-07-25T12:15:40.965Z,53449.75
2022-07-25T12:18:10.740Z,53411.91
2022-07-25T12:20:41.238Z,53445.75
2022-07-25T12:23:11.247Z,53437.78
2022-07-25T12:25:40.622Z,53419.88
2022-07-25T12:28:10.905Z,53491.56
2022-07-25T12:30:40.455Z,53415.88
2022-07-25T12:33:09.155Z,53423.84
2022-07-25T12:35:38.221Z,53437.78
2022-07-25T12:38:07.071Z,53433.81
2022-07-25T12:40:35.562Z,53433.81
2022-07-25T12:43:04.815Z,53425.84
2022-07-25T12:45:35.030Z,53415.88
2022-07-25T12:48:03.267Z,53439.78
2022-07-25T12:50:31.629Z,53435.78
2022-07-25T12:52:59.998Z,53439.78
2022-07-25T12:55:28.373Z,53427.84
2022-07-25T12:57:56.671Z,53409.91
2022-07-25T13:00:25.609Z,53403.94
2022-07-25T13:02:57.038Z,53425.84
2022-07-25T13:05:26.714Z,53403.94
2022-07-25T13:07:54.920Z,53427.84
2022-07-25T13:10:23.201Z,53431.81
2022-07-25T13:12:51.855Z,53411.91
2022-07-25T13:15:22.466Z,53403.94
2022-07-25T13:17:51.387Z,53419.88
2022-07-25T13:20:21.436Z,53429.81
2022-07-25T13:22:49.913Z,53433.81
2022-07-25T13:25:18.466Z,53397.94
2022-07-25T13:27:48.576Z,53401.94
2022-07-25T13:30:17.177Z,53427.84
2022-07-25T13:32:45.465Z,53403.94
2022-07-25T13:35:16.469Z,53433.81
2022-07-25T13:37:49.950Z,53457.72
2022-07-25T13:40:18.332Z,53415.88
2022-07-25T13:42:46.502Z,53395.97
2022-07-25T13:45:15.900Z,53423.84
2022-07-25T13:47:44.233Z,53419.88
2022-07-25T13:50:14.926Z,53427.84
2022-07-25T13:52:43.100Z,53399.94
2022-07-25T13:55:12.963Z,53483.59
2022-07-25T13:57:41.153Z,53409.91
2022-07-25T14:00:10.703Z,53401.94
2022-07-25T14:02:38.930Z,53479.63
2022-07-25T14:05:07.547Z,53435.78
2022-07-25T14:07:36.153Z,53407.91
2022-07-25T14:10:06.051Z,53433.81
2022-07-25T14:12:36.627Z,53437.78
2022-07-25T14:15:05.771Z,53423.84
2022-07-25T14:17:35.318Z,53415.88
2022-07-25T14:20:03.784Z,53411.91
2022-07-25T14:22:31.973Z,53407.91
2022-07-25T14:25:00.201Z,53441.78
2022-07-25T14:27:28.771Z,53425.84
2022-07-25T14:29:58.352Z,53419.88
2022-07-25T14:32:27.015Z,53405.91
2022-07-25T14:34:55.181Z,53405.91
2022-07-25T14:37:23.607Z,53409.91
2022-07-25T14:39:53.535Z,53386.00
2022-07-25T14:42:21.864Z,53397.94
2022-07-25T14:44:50.226Z,53380.03
2022-07-25T14:47:22.234Z,53393.97
2022-07-25T14:49:51.308Z,53352.13
2022-07-25T14:52:19.784Z,53374.03
2022-07-25T14:54:48.031Z,53388.00
2022-07-25T14:57:16.535Z,53368.06
2022-07-25T14:59:44.711Z,53417.88
2022-07-25T15:02:12.995Z,53389.97
2022-07-25T15:04:43.863Z,53409.91
2022-07-25T15:07:12.206Z,53356.13
2022-07-25T15:09:40.682Z,53372.06
2022-07-25T15:12:13.419Z,53391.97
2022-07-25T15:14:44.788Z,53395.97
2022-07-25T15:17:13.682Z,53388.00
2022-07-25T15:19:49.565Z,53384.00
2022-07-25T15:22:17.951Z,53386.00
2022-07-25T15:25:21.472Z,53364.09
2022-07-25T15:27:34.941Z,53354.13
2022-07-25T15:30:03.149Z,53368.06
2022-07-25T15:32:31.482Z,53388.00
2022-07-25T15:35:01.163Z,53395.97
2022-07-25T15:37:30.014Z,53370.06
2022-07-25T15:39:58.347Z,53364.09
2022-07-25T15:42:29.191Z,53384.00
2022-07-25T15:45:34.080Z,53395.97
2022-07-25T15:47:56.642Z,53437.78
2022-07-25T15:50:26.304Z,53419.88
2022-07-25T15:52:54.529Z,53380.03
2022-07-25T15:55:22.942Z,53397.94
2022-07-25T15:57:52.888Z,53378.03
2022-07-25T16:00:24.834Z,53389.97
2022-07-25T16:02:57.349Z,53372.06
2022-07-25T16:05:27.673Z,53378.03
2022-07-25T16:07:56.133Z,53395.97
2022-07-25T16:10:24.469Z,53397.94
2022-07-25T16:12:52.667Z,53441.78
2022-07-25T16:15:21.390Z,53451.72
2022-07-25T16:17:53.077Z,53405.91
2022-07-25T16:20:21.750Z,53423.84
2022-07-25T16:22:56.096Z,53407.91
2022-07-25T16:25:25.061Z,53419.88
2022-07-25T16:27:53.746Z,53427.84
2022-07-25T16:30:22.479Z,53427.84
2022-07-25T16:32:50.873Z,53425.84
2022-07-25T16:35:19.483Z,53435.78
2022-07-25T16:37:48.328Z,53445.75
2022-07-25T16:40:18.115Z,53411.91
2022-07-25T16:42:49.156Z,53447.75
2022-07-25T16:45:21.086Z,53435.78
2022-07-25T16:47:56.984Z,53427.84
2022-07-25T16:50:28.455Z,53475.63
2022-07-25T16:52:56.797Z,53447.75
2022-07-25T16:55:26.460Z,53463.69
2022-07-25T16:57:55.105Z,53447.75
2022-07-25T17:00:23.350Z,53497.56
2022-07-25T17:02:51.722Z,53439.78
2022-07-25T17:05:22.677Z,53495.56
2022-07-25T17:07:59.256Z,53415.88
2022-07-25T17:10:30.087Z,53441.78
2022-07-25T17:13:00.453Z,53459.69
2022-07-25T17:15:28.660Z,53491.56
2022-07-25T17:17:57.022Z,53463.69
2022-07-25T17:20:25.951Z,53473.66
2022-07-25T17:22:54.463Z,53451.72
2022-07-25T17:25:22.878Z,53487.59
2022-07-25T17:27:52.414Z,53453.72
2022-07-25T17:30:20.669Z,53481.63
2022-07-25T17:32:48.960Z,53501.53
2022-07-25T17:35:17.166Z,53467.66
2022-07-25T17:37:45.485Z,53443.75
2022-07-25T17:40:14.192Z,53477.63
2022-07-25T17:42:45.414Z,53499.53
2022-07-25T17:45:16.571Z,53507.50
2022-07-25T17:47:47.101Z,53463.69
2022-07-25T17:50:17.018Z,53465.69
2022-07-25T17:52:45.496Z,53491.56
2022-07-25T17:55:15.099Z,53521.44
2022-07-25T17:57:45.621Z,53489.59
2022-07-25T18:00:16.398Z,53511.50
2022-07-25T18:02:44.894Z,53499.53
2022-07-25T18:05:13.141Z,53495.56
2022-07-25T18:07:45.310Z,53511.50
2022-07-25T18:10:14.062Z,53505.53
2022-07-25T18:12:42.501Z,53507.50
2022-07-25T18:15:12.859Z,53531.41
2022-07-25T18:17:43.997Z,53499.53
2022-07-25T18:20:13.857Z,53517.47
2022-07-25T18:22:42.494Z,53507.50
2022-07-25T18:25:12.644Z,53525.44
2022-07-25T18:27:42.405Z,53539.38
2022-07-25T18:30:11.745Z,53531.41
2022-07-25T18:32:40.480Z,53545.34
2022-07-25T18:35:12.156Z,53525.44
2022-07-25T18:37:40.506Z,53545.34
2022-07-25T18:40:09.944Z,53517.47
2022-07-25T18:42:38.882Z,53551.34
2022-07-25T18:45:08.111Z,53547.34
2022-07-25T18:47:36.370Z,53559.31
2022-07-25T18:50:06.082Z,53563.28
2022-07-25T18:52:37.592Z,53541.38
2022-07-25T18:55:09.489Z,53563.28
2022-07-25T18:57:40.602Z,53559.31
2022-07-25T19:00:20.064Z,53583.22
2022-07-25T19:03:02.966Z,53559.31
2022-07-25T19:05:31.930Z,53573.25
2022-07-25T19:08:03.541Z,53579.22
2022-07-25T19:10:31.984Z,53569.25
2022-07-25T19:13:01.500Z,53545.34
2022-07-25T19:15:35.645Z,53579.22
2022-07-25T19:18:05.785Z,53573.25
2022-07-25T19:20:34.276Z,53607.09
2022-07-25T19:23:04.088Z,53611.09
2022-07-25T19:25:34.153Z,53605.13
2022-07-25T19:28:02.796Z,53615.06
2022-07-25T19:30:31.658Z,53569.25
2022-07-25T19:33:00.227Z,53579.22
2022-07-25T19:35:28.657Z,53607.09
2022-07-25T19:37:56.952Z,53597.16
2022-07-25T19:40:27.771Z,53587.19
2022-07-25T19:42:56.202Z,53627.03
2022-07-25T19:45:27.368Z,53638.97
2022-07-25T19:47:55.872Z,53603.13
2022-07-25T19:50:24.573Z,53617.06
2022-07-25T19:52:53.139Z,53688.78
2022-07-25T19:55:22.976Z,53605.13
2022-07-25T19:57:53.138Z,53605.13
2022-07-25T20:00:29.783Z,53605.13
2022-07-25T20:02:58.254Z,53650.94
2022-07-25T20:05:28.882Z,53631.00
2022-07-25T20:07:57.410Z,53638.97
2022-07-25T20:10:26.941Z,53662.88
2022-07-25T20:13:01.097Z,53642.97
2022-07-25T20:15:30.053Z,53631.00
2022-07-25T20:17:58.597Z,53635.00
2022-07-25T20:20:28.049Z,53642.97
2022-07-25T20:22:56.572Z,53670.84
2022-07-25T20:25:25.373Z,53631.00
2022-07-25T20:27:59.126Z,53646.94
2022-07-25T20:30:32.909Z,53638.97
2022-07-25T20:33:05.375Z,53652.94
2022-07-25T20:35:38.180Z,53638.97
2022-07-25T20:38:09.845Z,53646.94
2022-07-25T20:40:46.318Z,53638.97
2022-07-25T20:43:21.074Z,53631.00
2022-07-25T20:45:50.363Z,53654.91
2022-07-25T20:48:18.929Z,53664.88
2022-07-25T20:50:47.306Z,53658.91
2022-07-25T20:53:15.588Z,53650.94
2022-07-25T20:55:43.981Z,53638.97
2022-07-25T20:58:12.129Z,53644.97
2022-07-25T21:00:42.124Z,53698.75
2022-07-25T21:03:10.441Z,53654.91
2022-07-25T21:05:39.670Z,53674.84
2022-07-25T21:08:08.331Z,53662.88
2022-07-25T21:10:36.535Z,53654.91
2022-07-25T21:13:04.976Z,53698.75
2022-07-25T21:15:33.388Z,53682.81
2022-07-25T21:18:02.995Z,53706.72
2022-07-25T21:20:31.393Z,53680.81
2022-07-25T21:22:59.827Z,53654.91
2022-07-25T21:25:28.190Z,53686.78
2022-07-25T21:27:56.478Z,53718.66
2022-07-25T21:30:24.653Z,53674.84
2022-07-25T21:32:52.827Z,53684.81
2022-07-25T21:35:22.348Z,53706.72
2022-07-25T21:37:50.542Z,53704.72
2022-07-25T21:40:18.803Z,53676.84
2022-07-25T21:42:47.000Z,53712.69
2022-07-25T21:45:15.221Z,53674.84
2022-07-25T21:47:43.345Z,53674.84
2022-07-25T21:50:29.308Z,53686.78
2022-07-25T21:52:58.867Z,53670.84
2022-07-25T21:55:27.269Z,53678.81
2022-07-25T21:57:55.663Z,53652.94
2022-07-25T22:00:24.021Z,53686.78
2022-07-25T22:02:52.177Z,53668.88
2022-07-25T22:05:20.841Z,53678.81
2022-07-25T22:07:50.532Z,53662.88
2022-07-25T22:10:21.363Z,53678.81
2022-07-25T22:12:49.762Z,53672.84
2022-07-25T22:15:17.912Z,53654.91
2022-07-25T22:17:49.534Z,53670.84
2022-07-25T22:20:18.830Z,53674.84
2022-07-25T22:22:47.361Z,53670.84
2022-07-25T22:25:16.799Z,53644.97
2022-07-25T22:27:46.543Z,53664.88
2022-07-25T22:30:19.183Z,53623.03
2022-07-25T22:32:48.695Z,53684.81
2022-07-25T22:35:16.927Z,53672.84
2022-07-25T22:37:46.314Z,53680.81
2022-07-25T22:40:14.807Z,53728.63
2022-07-25T22:42:43.956Z,53702.72
2022-07-25T22:45:13.973Z,53694.75
2022-07-25T22:47:42.080Z,53732.63
2022-07-25T22:50:11.237Z,53728.63
2022-07-25T22:52:39.485Z,53738.59
2022-07-25T22:55:08.516Z,53708.72
2022-07-25T22:57:37.791Z,53714.69
2022-07-25T23:00:09.345Z,53748.53
2022-07-25T23:02:39.093Z,53766.47
2022-07-25T23:05:08.385Z,53754.53
2022-07-25T23:07:36.623Z,53778.44
2022-07-25T23:10:06.463Z,53798.34
2022-07-25T23:12:34.586Z,53776.44
2022-07-25T23:15:02.899Z,53776.44
2022-07-25T23:17:31.042Z,53738.59
2022-07-25T23:20:00.609Z,53762.50
2022-07-25T23:22:30.249Z,53812.28
2022-07-25T23:24:58.660Z,53762.50
2022-07-25T23:27:27.665Z,53780.41
2022-07-25T23:29:55.735Z,53792.38
2022-07-25T23:32:24.016Z,53760.50
2022-07-25T23:34:52.131Z,53768.47
2022-07-25T23:37:21.654Z,53776.44
2022-07-25T23:39:50.741Z,53766.47
2022-07-25T23:42:18.923Z,53738.59
2022-07-25T23:44:47.277Z,53774.44
2022-07-25T23:47:15.607Z,53738.59
2022-07-25T23:49:46.191Z,53770.47
2022-07-25T23:52:14.388Z,53790.38
2022-07-25T23:54:44.020Z,53748.53
2022-07-25T23:57:12.768Z,53746.56
2022-07-25T23:59:43.040Z,53770.47
